createdAt,value
2018-11-13T00:02:37.156Z,81.90
2018-11-13T00:12:40.892Z,81.90
2018-11-13T00:22:44.711Z,82.00
2018-11-13T00:32:48.209Z,82.20
2018-11-13T00:42:51.921Z,82.00
2018-11-13T00:52:55.177Z,81.40
2018-11-13T01:02:58.548Z,82.00
2018-11-13T01:13:01.686Z,82.60
2018-11-13T01:23:05.240Z,83.00
2018-11-13T01:33:08.532Z,83.20
2018-11-13T01:43:11.791Z,82.90
2018-11-13T01:53:15.060Z,82.80
2018-11-13T02:03:18.325Z,82.70
2018-11-13T02:13:21.575Z,82.90
2018-11-13T02:23:24.866Z,82.80
2018-11-13T02:33:28.976Z,82.80
2018-11-13T02:43:33.072Z,83.20
2018-11-13T02:53:36.340Z,83.10
2018-11-13T03:03:39.605Z,83.10
2018-11-13T03:13:42.906Z,83.20
2018-11-13T03:23:46.160Z,84.10
2018-11-13T03:33:49.444Z,83.40
2018-11-13T03:43:52.694Z,83.40
2018-11-13T03:53:55.938Z,83.50
2018-11-13T04:03:59.197Z,83.60
2018-11-13T04:14:02.460Z,83.70
2018-11-13T04:24:05.769Z,83.70
2018-11-13T04:34:09.037Z,84.00
2018-11-13T04:44:12.264Z,84.30
2018-11-13T04:54:15.508Z,83.80
2018-11-13T05:04:18.776Z,83.00
2018-11-13T05:14:22.016Z,82.40
2018-11-13T05:24:25.334Z,81.50
2018-11-13T05:34:28.628Z,80.80
2018-11-13T05:44:31.900Z,80.30
2018-11-13T05:54:35.193Z,79.60
2018-11-13T06:04:38.436Z,79.20
2018-11-13T06:14:41.940Z,78.80
2018-11-13T06:24:45.413Z,78.70
2018-11-13T06:34:48.655Z,78.80
2018-11-13T06:44:52.045Z,78.80
2018-11-13T06:54:59.493Z,79.20
2018-11-13T07:05:02.791Z,79.70
2018-11-13T07:15:07.222Z,80.00
2018-11-13T07:25:10.610Z,80.40
2018-11-13T07:35:15.321Z,80.80
2018-11-13T07:45:18.748Z,80.60
2018-11-13T07:55:22.062Z,81.00
2018-11-13T08:05:25.392Z,81.00
2018-11-13T08:15:28.785Z,81.00
2018-11-13T08:25:32.162Z,81.40
2018-11-13T08:35:35.428Z,81.60
2018-11-13T08:45:38.661Z,81.80
2018-11-13T08:55:41.918Z,81.60
2018-11-13T09:05:45.209Z,81.30
2018-11-13T09:15:48.533Z,81.60
2018-11-13T09:25:51.775Z,81.50
2018-11-13T09:35:55.188Z,81.40
2018-11-13T09:45:58.471Z,81.20
2018-11-13T09:56:01.752Z,81.20
2018-11-13T10:06:05.056Z,81.00
2018-11-13T10:16:08.469Z,80.30
2018-11-13T10:26:11.770Z,79.40
2018-11-13T10:36:15.002Z,79.20
2018-11-13T10:46:18.305Z,79.50
2018-11-13T10:56:21.703Z,78.90
2018-11-13T11:06:24.973Z,78.50
2018-11-13T11:16:28.337Z,78.50
2018-11-13T11:26:32.780Z,78.50
2018-11-13T11:36:36.260Z,77.30
2018-11-13T11:46:39.601Z,77.20
2018-11-13T11:56:42.920Z,75.60
2018-11-13T12:06:46.285Z,74.00
2018-11-13T12:16:49.892Z,72.30
2018-11-13T12:26:53.264Z,71.20
2018-11-13T12:36:56.608Z,69.20
2018-11-13T12:46:59.958Z,66.80
2018-11-13T12:57:03.367Z,65.10
2018-11-13T13:07:07.108Z,64.00
2018-11-13T13:17:10.634Z,63.70
2018-11-13T13:27:14.080Z,63.00
2018-11-13T13:37:18.261Z,63.00
2018-11-13T13:47:21.542Z,62.40
2018-11-13T13:57:24.769Z,61.90
2018-11-13T14:07:28.003Z,61.90
2018-11-13T14:17:31.561Z,62.20
2018-11-13T14:27:34.928Z,61.50
2018-11-13T14:37:38.861Z,61.20
2018-11-13T14:47:43.131Z,60.80
2018-11-13T14:57:46.897Z,60.50
2018-11-13T15:07:51.632Z,60.50
2018-11-13T15:17:54.832Z,60.70
2018-11-13T15:27:58.125Z,61.80
2018-11-13T15:38:01.377Z,61.40
2018-11-13T15:48:05.971Z,61.70
2018-11-13T15:58:09.518Z,62.30
2018-11-13T16:08:13.180Z,62.60
2018-11-13T16:18:17.847Z,63.10
2018-11-13T16:28:21.110Z,63.70
2018-11-13T16:38:24.490Z,64.30
2018-11-13T16:48:27.638Z,65.00
2018-11-13T16:58:30.935Z,65.50
2018-11-13T17:08:34.290Z,66.00
2018-11-13T17:18:38.873Z,66.60
2018-11-13T17:28:42.193Z,67.20
2018-11-13T17:38:46.268Z,67.80
2018-11-13T17:48:49.823Z,68.20
2018-11-13T17:58:53.168Z,68.70
2018-11-13T18:08:56.516Z,69.00
2018-11-13T18:18:59.769Z,69.40
2018-11-13T18:29:03.082Z,69.60
2018-11-13T18:39:07.850Z,70.40
2018-11-13T18:49:10.944Z,70.40
2018-11-13T18:59:14.223Z,70.30
2018-11-13T19:09:17.447Z,70.50
2018-11-13T19:19:20.711Z,70.70
2018-11-13T19:29:24.049Z,70.80
2018-11-13T19:39:27.312Z,71.70
2018-11-13T19:49:30.604Z,71.40
2018-11-13T19:59:33.796Z,71.70
2018-11-13T20:09:37.100Z,71.20
2018-11-13T20:19:40.444Z,70.90
2018-11-13T20:29:43.684Z,70.90
2018-11-13T20:39:46.969Z,70.60
2018-11-13T20:49:50.184Z,70.30
2018-11-13T20:59:53.720Z,70.40
2018-11-13T21:09:57.109Z,70.20
2018-11-13T21:20:00.402Z,70.00
2018-11-13T21:30:04.456Z,70.00
2018-11-13T21:40:08.633Z,69.80
2018-11-13T21:50:13.520Z,69.70
2018-11-13T22:00:33.034Z,69.60
2018-11-13T22:10:36.284Z,69.40
2018-11-13T22:20:43.622Z,69.20
2018-11-13T22:30:42.827Z,69.50
2018-11-13T22:40:46.297Z,69.80
2018-11-13T22:50:49.515Z,70.20
2018-11-13T23:00:52.759Z,70.60
2018-11-13T23:10:55.983Z,70.90
2018-11-13T23:20:59.242Z,71.40
2018-11-13T23:31:02.460Z,72.80
2018-11-13T23:41:05.833Z,73.30
2018-11-13T23:51:09.049Z,73.60
